Time;durP1;ratioP1;P1;durP2;ratioP2;P2;SDS_P1;SDS_P2;PMS_P1;PMS_P2;Temp;Humidity;BMP_temperature;BMP_pressure;BME280_temperature;BME280_humidity;BME280_pressure;Samples;Min_cycle;Max_cycle;Signal;HPM_P1;HPM_P2
2023/12/19 00:05:24;;;;;;;;;;;1.10;99.90;;;;;;20913633;28;19909;-77
2023/12/19 00:15:25;;;;;;;;;;;1.10;99.90;;;;;;20901833;28;19920;-77
2023/12/19 00:25:26;;;;;;;;;;;0.90;99.90;;;;;;20907825;28;19943;-77
2023/12/19 00:35:27;;;;;;;;;;;0.80;99.90;;;;;;20894373;28;19956;-77
2023/12/19 00:45:28;;;;;;;;;;;0.70;99.90;;;;;;20874174;28;19908;-77
2023/12/19 00:55:28;;;;;;;;;;;0.60;99.90;;;;;;20899329;28;20296;-77
2023/12/19 01:05:29;;;;;;;;;;;0.60;99.90;;;;;;20916840;28;19908;-78
2023/12/19 01:15:30;;;;;;;;;;;0.60;99.90;;;;;;20881036;28;19927;-78
2023/12/19 01:25:30;;;;;;;;;;;0.60;99.90;;;;;;20912072;28;19915;-77
2023/12/19 01:35:31;;;;;;;;;;;0.60;99.90;;;;;;20918853;28;19970;-78
2023/12/19 01:45:32;;;;;;;;;;;0.50;99.90;;;;;;20914208;28;19987;-78
2023/12/19 01:55:33;;;;;;;;;;;0.60;99.90;;;;;;20879195;28;19932;-77
2023/12/19 02:05:37;;;;;;;;;;;0.60;99.90;;;;;;20920547;28;19909;-78
2023/12/19 02:15:37;;;;;;;;;;;0.70;99.90;;;;;;20922886;28;20392;-78
2023/12/19 02:25:38;;;;;;;;;;;0.70;99.90;;;;;;20914213;28;19970;-78
2023/12/19 02:35:39;;;;;;;;;;;0.70;99.90;;;;;;20924873;28;19912;-78
2023/12/19 02:45:39;;;;;;;;;;;0.80;99.90;;;;;;20917850;28;19955;-77
2023/12/19 02:55:41;;;;;;;;;;;0.80;99.90;;;;;;20904518;28;19920;-77
2023/12/19 03:05:42;;;;;;;;;;;0.80;99.90;;;;;;20903396;28;20379;-78
2023/12/19 03:15:43;;;;;;;;;;;0.90;99.90;;;;;;20915574;28;19935;-77
2023/12/19 03:25:44;;;;;;;;;;;0.80;99.90;;;;;;20902664;28;20002;-78
2023/12/19 03:35:45;;;;;;;;;;;0.70;99.90;;;;;;20914966;28;20374;-78
2023/12/19 03:45:45;;;;;;;;;;;0.60;99.90;;;;;;20898674;28;20024;-77
2023/12/19 03:55:46;;;;;;;;;;;0.30;99.90;;;;;;20909080;28;20408;-78
2023/12/19 04:05:47;;;;;;;;;;;0.10;99.90;;;;;;20920104;28;19916;-78
2023/12/19 04:15:47;;;;;;;;;;;0.20;99.90;;;;;;20895195;28;19967;-78
2023/12/19 04:25:48;;;;;;;;;;;0.30;99.90;;;;;;20892929;28;19908;-78
2023/12/19 04:35:49;;;;;;;;;;;0.30;99.90;;;;;;20923399;28;19943;-78
2023/12/19 04:45:50;;;;;;;;;;;0.40;99.90;;;;;;20927019;28;19916;-78
2023/12/19 04:55:50;;;;;;;;;;;0.30;99.90;;;;;;20921455;28;20388;-76
2023/12/19 05:05:51;;;;;;;;;;;0.30;99.90;;;;;;20907316;28;19998;-77
2023/12/19 05:15:52;;;;;;;;;;;0.30;99.90;;;;;;20904640;28;19955;-78
2023/12/19 05:25:52;;;;;;;;;;;0.30;99.90;;;;;;20894471;28;20075;-78
2023/12/19 05:35:53;;;;;;;;;;;0.30;99.90;;;;;;20888668;28;19917;-78
2023/12/19 05:45:54;;;;;;;;;;;0.20;99.90;;;;;;20928035;28;20292;-78
2023/12/19 05:55:54;;;;;;;;;;;0.20;99.90;;;;;;20926085;28;19912;-78
2023/12/19 06:05:55;;;;;;;;;;;0.30;99.90;;;;;;20928895;28;20547;-76
2023/12/19 06:15:56;;;;;;;;;;;0.30;99.90;;;;;;20898674;28;19928;-77
2023/12/19 06:25:56;;;;;;;;;;;0.40;99.90;;;;;;20918006;28;19974;-78
2023/12/19 06:35:57;;;;;;;;;;;0.40;99.90;;;;;;20888112;28;19920;-77
2023/12/19 06:45:57;;;;;;;;;;;0.60;99.90;;;;;;20914785;28;20399;-78
2023/12/19 06:55:58;;;;;;;;;;;0.60;99.90;;;;;;20922179;28;19920;-78
2023/12/19 07:05:59;;;;;;;;;;;0.40;99.90;;;;;;20923683;28;19909;-78
2023/12/19 07:16:00;;;;;;;;;;;0.50;99.90;;;;;;20927639;28;20003;-78
2023/12/19 07:26:01;;;;;;;;;;;0.50;99.90;;;;;;20938042;28;20015;-79
2023/12/19 07:36:02;;;;;;;;;;;0.60;99.90;;;;;;20923110;28;20008;-77
2023/12/19 07:46:03;;;;;;;;;;;0.50;99.90;;;;;;20882349;28;19909;-78
2023/12/19 07:56:04;;;;;;;;;;;0.50;99.90;;;;;;20912263;28;19923;-77
2023/12/19 08:06:05;;;;;;;;;;;0.50;99.90;;;;;;20904854;28;19909;-78
2023/12/19 08:16:06;;;;;;;;;;;0.50;99.90;;;;;;20899733;28;19920;-78
2023/12/19 08:26:10;;;;;;;;;;;0.50;99.90;;;;;;20930213;28;20408;-78
2023/12/19 08:36:11;;;;;;;;;;;0.50;99.90;;;;;;20928349;28;19920;-78
2023/12/19 08:46:16;;;;;;;;;;;0.50;99.90;;;;;;20923920;28;19908;-78
2023/12/19 08:56:17;;;;;;;;;;;0.60;99.90;;;;;;20917511;28;19917;-76
2023/12/19 09:06:17;;;;;;;;;;;0.80;99.90;;;;;;20937384;28;19916;-77
2023/12/19 09:16:18;;;;;;;;;;;0.80;99.90;;;;;;20926030;28;19920;-76
2023/12/19 09:26:19;;;;;;;;;;;0.90;99.90;;;;;;20920437;28;19915;-77
2023/12/19 09:36:24;;;;;;;;;;;1.00;99.90;;;;;;20944233;28;19920;-77
2023/12/19 09:46:25;;;;;;;;;;;1.40;99.90;;;;;;20908378;28;19963;-78
2023/12/19 09:56:26;;;;;;;;;;;1.80;99.90;;;;;;20930991;28;19913;-78
2023/12/19 10:06:26;;;;;;;;;;;2.00;99.90;;;;;;20927688;28;20378;-78
2023/12/19 10:16:32;;;;;;;;;;;2.20;99.90;;;;;;20900485;28;19912;-79
2023/12/19 10:26:33;;;;;;;;;;;2.10;99.90;;;;;;20902306;28;20018;-78
2023/12/19 10:36:34;;;;;;;;;;;2.50;99.90;;;;;;20915911;28;19917;-79
2023/12/19 10:46:35;;;;;;;;;;;3.80;99.90;;;;;;20944486;28;19912;-79
2023/12/19 10:56:58;;;;;;;;;;;4.70;99.90;;;;;;20915913;28;19935;-79
2023/12/19 11:07:02;;;;;;;;;;;6.70;99.90;;;;;;20918613;28;19908;-79
2023/12/19 11:17:12;;;;;;;;;;;6.00;99.90;;;;;;20927163;28;19909;-80
2023/12/19 11:27:18;;;;;;;;;;;5.30;99.90;;;;;;20927924;28;19967;-79
2023/12/19 11:37:22;;;;;;;;;;;5.10;99.90;;;;;;20926186;28;20004;-79
2023/12/19 11:47:28;;;;;;;;;;;7.70;99.90;;;;;;20925072;28;19913;-79
2023/12/19 11:57:29;;;;;;;;;;;9.00;99.90;;;;;;20921619;28;19916;-79
2023/12/19 12:07:30;;;;;;;;;;;10.10;99.90;;;;;;20924764;28;19912;-79
2023/12/19 12:17:33;;;;;;;;;;;9.30;99.90;;;;;;20936618;28;19940;-80
2023/12/19 12:27:34;;;;;;;;;;;9.60;99.90;;;;;;20929923;28;19917;-80
2023/12/19 12:37:34;;;;;;;;;;;10.40;99.90;;;;;;20916720;28;19919;-78
2023/12/19 12:47:37;;;;;;;;;;;10.00;99.90;;;;;;20920465;28;19924;-79
2023/12/19 12:57:38;;;;;;;;;;;9.80;99.90;;;;;;20894847;28;19916;-80
2023/12/19 13:07:42;;;;;;;;;;;10.60;99.90;;;;;;20919217;28;19912;-77
2023/12/19 13:17:42;;;;;;;;;;;10.10;99.90;;;;;;20913686;28;20456;-78
2023/12/19 13:27:43;;;;;;;;;;;9.20;99.90;;;;;;20941002;28;19936;-77
2023/12/19 13:37:44;;;;;;;;;;;8.70;99.90;;;;;;20933990;28;19917;-80
2023/12/19 13:47:45;;;;;;;;;;;7.70;99.90;;;;;;20936899;28;19972;-79
2023/12/19 13:57:46;;;;;;;;;;;7.30;99.90;;;;;;20943968;28;19909;-81
2023/12/19 14:07:46;;;;;;;;;;;7.20;99.90;;;;;;20934307;28;19999;-81
2023/12/19 14:17:47;;;;;;;;;;;7.70;99.90;;;;;;20951527;28;19981;-81
2023/12/19 14:27:48;;;;;;;;;;;7.80;99.90;;;;;;20936043;28;19974;-82
2023/12/19 14:37:48;;;;;;;;;;;7.90;99.90;;;;;;20927163;28;19912;-80
2023/12/19 14:47:50;;;;;;;;;;;7.50;99.90;;;;;;20899185;28;19913;-79
2023/12/19 14:57:51;;;;;;;;;;;7.30;99.90;;;;;;20909260;28;19908;-81
2023/12/19 15:07:52;;;;;;;;;;;7.10;99.90;;;;;;20921040;28;19919;-81
2023/12/19 15:17:53;;;;;;;;;;;6.80;99.90;;;;;;20928417;28;19909;-80
2023/12/19 15:27:54;;;;;;;;;;;6.60;99.90;;;;;;20924406;28;20025;-81
2023/12/19 15:37:54;;;;;;;;;;;6.40;99.90;;;;;;20919617;28;19913;-81
2023/12/19 15:48:00;;;;;;;;;;;6.30;99.90;;;;;;20896223;28;19912;-80
2023/12/19 15:58:01;;;;;;;;;;;6.20;99.90;;;;;;20924559;28;19912;-81
2023/12/19 16:08:03;;;;;;;;;;;6.00;99.90;;;;;;20917442;28;19974;-81
2023/12/19 16:18:03;;;;;;;;;;;5.90;99.90;;;;;;20905396;28;20293;-79
2023/12/19 16:28:04;;;;;;;;;;;5.80;99.90;;;;;;20898795;28;19947;-81
2023/12/19 16:38:05;;;;;;;;;;;5.80;99.90;;;;;;20929046;28;20401;-81
2023/12/19 16:48:06;;;;;;;;;;;5.60;99.90;;;;;;20920461;28;19919;-81
2023/12/19 16:58:06;;;;;;;;;;;5.20;99.90;;;;;;20932974;28;19944;-80
2023/12/19 17:08:07;;;;;;;;;;;4.90;99.90;;;;;;20927736;28;20392;-79
2023/12/19 17:18:08;;;;;;;;;;;4.80;99.90;;;;;;20916511;28;20373;-81
2023/12/19 17:28:08;;;;;;;;;;;4.80;99.90;;;;;;20918118;28;19920;-79
2023/12/19 17:38:09;;;;;;;;;;;4.90;99.90;;;;;;20947653;28;19927;-79
2023/12/19 17:48:09;;;;;;;;;;;4.40;99.90;;;;;;20940066;28;19912;-78
2023/12/19 17:58:11;;;;;;;;;;;4.00;99.90;;;;;;20915916;28;19916;-80
2023/12/19 18:08:11;;;;;;;;;;;3.60;99.90;;;;;;20941601;28;20004;-78
2023/12/19 18:18:13;;;;;;;;;;;3.50;99.90;;;;;;20913957;28;19909;-78
2023/12/19 18:28:14;;;;;;;;;;;3.40;99.90;;;;;;20913628;28;19983;-80
2023/12/19 18:38:14;;;;;;;;;;;3.30;99.90;;;;;;20924092;28;19927;-78
2023/12/19 18:48:15;;;;;;;;;;;3.30;99.90;;;;;;20901752;28;19917;-80
2023/12/19 18:58:16;;;;;;;;;;;3.40;99.90;;;;;;20918765;28;19908;-78
2023/12/19 19:08:16;;;;;;;;;;;3.50;99.90;;;;;;20929430;28;19958;-80
2023/12/19 19:18:19;;;;;;;;;;;3.50;99.90;;;;;;20919579;28;20552;-80
2023/12/19 19:28:21;;;;;;;;;;;3.40;99.90;;;;;;20922456;28;19921;-79
2023/12/19 19:38:25;;;;;;;;;;;3.30;99.90;;;;;;20924127;28;19913;-80
2023/12/19 19:48:25;;;;;;;;;;;3.30;99.90;;;;;;20909353;28;19913;-80
2023/12/19 19:58:26;;;;;;;;;;;3.30;99.90;;;;;;20911214;28;19908;-80
2023/12/19 20:08:27;;;;;;;;;;;3.30;99.90;;;;;;20910637;28;19912;-79
2023/12/19 20:18:30;;;;;;;;;;;3.40;99.90;;;;;;20915154;28;20124;-80
2023/12/19 20:28:31;;;;;;;;;;;3.60;99.90;;;;;;20915774;28;19988;-79
2023/12/19 20:38:32;;;;;;;;;;;3.80;99.90;;;;;;20912567;28;20420;-79
2023/12/19 20:48:34;;;;;;;;;;;3.90;99.90;;;;;;20913882;28;19959;-77
2023/12/19 20:58:36;;;;;;;;;;;3.90;99.90;;;;;;20927271;28;19913;-80
2023/12/19 21:08:37;;;;;;;;;;;4.00;99.90;;;;;;20929223;28;19923;-79
2023/12/19 21:18:38;;;;;;;;;;;4.10;99.90;;;;;;20899268;28;19931;-79
2023/12/19 21:28:39;;;;;;;;;;;4.20;99.90;;;;;;20904280;28;19913;-80
2023/12/19 21:38:39;;;;;;;;;;;4.30;99.90;;;;;;20911056;28;19913;-83
2023/12/19 21:48:40;;;;;;;;;;;4.30;99.90;;;;;;20970833;28;19952;-81
2023/12/19 21:58:40;;;;;;;;;;;4.30;99.90;;;;;;20962346;28;19995;-82
2023/12/19 22:08:41;;;;;;;;;;;4.30;99.90;;;;;;20942860;28;19964;-82
2023/12/19 22:18:42;;;;;;;;;;;4.40;99.90;;;;;;20901347;28;19951;-81
2023/12/19 22:28:42;;;;;;;;;;;4.40;99.90;;;;;;20940233;28;19913;-81
2023/12/19 22:38:43;;;;;;;;;;;4.40;99.90;;;;;;20949962;28;20373;-79
2023/12/19 22:48:44;;;;;;;;;;;4.40;99.90;;;;;;20944611;28;19935;-80
2023/12/19 22:58:44;;;;;;;;;;;4.40;99.90;;;;;;20927545;28;19913;-80
2023/12/19 23:08:48;;;;;;;;;;;4.40;99.90;;;;;;20925675;28;19924;-81
2023/12/19 23:18:48;;;;;;;;;;;4.30;99.90;;;;;;20923907;28;20035;-79
2023/12/19 23:28:49;;;;;;;;;;;4.30;99.90;;;;;;20921265;28;19913;-80
2023/12/19 23:38:50;;;;;;;;;;;4.30;99.90;;;;;;20933254;28;19913;-80
2023/12/19 23:48:50;;;;;;;;;;;4.30;99.90;;;;;;20934068;28;20332;-79
2023/12/19 23:58:51;;;;;;;;;;;4.40;99.90;;;;;;20932083;28;19909;-80
